Time;durP1;ratioP1;P1;durP2;ratioP2;P2;SDS_P1;SDS_P2;PMS_P1;PMS_P2;Temp;Humidity;BMP_temperature;BMP_pressure;BME280_temperature;BME280_humidity;BME280_pressure;Samples;Min_cycle;Max_cycle;Signal;HPM_P1;HPM_P2
2022/07/16 00:01:26;;;;;;;5.73;3.43;;;17.00;22.60;;;;;;5039092;28;45929;-63
2022/07/16 00:03:53;;;;;;;6.77;3.47;;;16.90;22.90;;;;;;5039611;28;46374;-63
2022/07/16 00:06:19;;;;;;;6.53;3.50;;;16.90;23.00;;;;;;5038380;28;46957;-63
2022/07/16 00:08:45;;;;;;;15.60;4.00;;;16.80;23.30;;;;;;5038351;28;46557;-63
2022/07/16 00:11:11;;;;;;;11.13;4.50;;;16.70;23.70;;;;;;5037977;28;46301;-64
2022/07/16 00:13:36;;;;;;;6.40;3.40;;;16.60;24.10;;;;;;5037103;28;46477;-64
2022/07/16 00:16:02;;;;;;;7.03;3.60;;;16.40;24.40;;;;;;5036232;28;46514;-64
2022/07/16 00:21:11;;;;;;;5.90;3.70;;;16.20;25.10;;;;;;5037838;28;46430;-62
2022/07/16 00:23:37;;;;;;;7.40;3.13;;;16.20;25.00;;;;;;5037747;28;46324;-64
2022/07/16 00:26:03;;;;;;;5.83;3.07;;;16.30;25.30;;;;;;5036645;28;46682;-63
2022/07/16 00:28:28;;;;;;;6.90;3.70;;;16.30;25.30;;;;;;5037943;28;46438;-64
2022/07/16 00:30:54;;;;;;;7.43;3.50;;;16.20;25.40;;;;;;5038574;28;46518;-63
2022/07/16 00:33:19;;;;;;;8.57;3.80;;;16.20;25.50;;;;;;5037684;28;46487;-64
2022/07/16 00:35:45;;;;;;;5.97;3.07;;;16.10;25.50;;;;;;5037407;28;46412;-64
2022/07/16 00:38:12;;;;;;;5.63;3.47;;;16.10;25.70;;;;;;5037947;28;46499;-64
2022/07/16 00:40:38;;;;;;;8.23;3.67;;;16.10;25.80;;;;;;5038307;28;46669;-64
2022/07/16 00:43:03;;;;;;;9.60;3.30;;;16.00;25.90;;;;;;5039393;28;47380;-64
2022/07/16 00:45:29;;;;;;;8.20;3.37;;;16.00;26.10;;;;;;5037880;28;46324;-63
2022/07/16 00:47:55;;;;;;;6.50;3.50;;;15.90;26.30;;;;;;5038892;28;46323;-63
2022/07/16 00:50:20;;;;;;;10.10;4.20;;;15.80;26.50;;;;;;5037810;28;46464;-64
2022/07/16 00:52:46;;;;;;;9.60;3.93;;;15.80;26.80;;;;;;5039300;28;46433;-63
2022/07/16 00:55:12;;;;;;;6.80;3.50;;;15.70;26.90;;;;;;5039300;28;46387;-63
2022/07/16 00:57:37;;;;;;;9.43;4.47;;;15.70;27.10;;;;;;5036383;28;45897;-64
2022/07/16 01:00:04;;;;;;;9.00;3.53;;;15.70;27.20;;;;;;5036793;28;46494;-64
2022/07/16 01:02:30;;;;;;;8.03;3.40;;;15.70;27.30;;;;;;5038793;28;46206;-63
2022/07/16 01:04:56;;;;;;;12.77;4.07;;;15.70;27.30;;;;;;5039223;28;46406;-63
2022/07/16 01:07:23;;;;;;;8.07;3.87;;;15.70;27.30;;;;;;5038685;28;46322;-63
2022/07/16 01:09:49;;;;;;;7.93;3.73;;;15.70;27.30;;;;;;5039200;28;46374;-62
2022/07/16 01:12:16;;;;;;;10.03;4.40;;;15.60;27.40;;;;;;5039754;28;47351;-63
2022/07/16 01:14:42;;;;;;;10.93;4.20;;;15.60;27.50;;;;;;5035801;28;46366;-63
2022/07/16 01:17:08;;;;;;;10.53;3.87;;;15.70;27.70;;;;;;5038068;28;46498;-64
2022/07/16 01:19:33;;;;;;;9.37;4.00;;;15.70;27.80;;;;;;5039399;28;46433;-63
2022/07/16 01:21:59;;;;;;;9.90;3.87;;;15.70;27.70;;;;;;5038622;28;47199;-63
2022/07/16 01:24:25;;;;;;;9.17;4.07;;;15.70;27.70;;;;;;5039735;28;47508;-64
2022/07/16 01:26:50;;;;;;;12.10;4.20;;;15.70;27.70;;;;;;5038674;28;46386;-63
2022/07/16 01:29:16;;;;;;;9.77;3.80;;;15.60;27.90;;;;;;5037681;28;46342;-64
2022/07/16 01:31:41;;;;;;;8.73;4.33;;;15.60;28.10;;;;;;5037751;28;46359;-64
2022/07/16 01:34:25;;;;;;;7.50;4.10;;;15.50;28.50;;;;;;5038606;28;46637;-64
2022/07/16 01:37:01;;;;;;;10.37;4.10;;;15.40;28.60;;;;;;5037634;28;46465;-64
2022/07/16 01:39:28;;;;;;;5.83;3.40;;;15.40;29.00;;;;;;5036768;28;46296;-64
2022/07/16 01:42:00;;;;;;;7.30;4.47;;;15.30;29.00;;;;;;5038197;28;46613;-63
2022/07/16 01:44:27;;;;;;;6.37;3.70;;;15.30;29.50;;;;;;5035268;28;45844;-63
2022/07/16 01:46:55;;;;;;;9.33;4.00;;;15.20;29.80;;;;;;5038210;28;46341;-63
2022/07/16 01:49:21;;;;;;;10.93;4.00;;;15.10;29.70;;;;;;5035385;28;46482;-64
2022/07/16 01:51:47;;;;;;;12.83;4.20;;;15.00;29.60;;;;;;5035670;28;46438;-63
2022/07/16 01:54:13;;;;;;;8.97;4.20;;;15.00;29.70;;;;;;5037372;28;46399;-63
2022/07/16 01:56:39;;;;;;;9.57;3.83;;;15.00;30.00;;;;;;5035933;28;46666;-63
2022/07/16 01:59:04;;;;;;;7.63;4.30;;;14.90;30.20;;;;;;5035967;28;46584;-63
2022/07/16 02:01:30;;;;;;;6.10;3.77;;;14.90;30.50;;;;;;5035266;28;46644;-64
2022/07/16 02:03:57;;;;;;;6.77;3.50;;;14.90;30.60;;;;;;5037673;28;46331;-62
2022/07/16 02:06:22;;;;;;;8.60;4.33;;;14.90;30.90;;;;;;5035468;28;46407;-63
2022/07/16 02:08:48;;;;;;;10.20;3.90;;;14.90;31.10;;;;;;5036025;28;45925;-63
2022/07/16 02:11:14;;;;;;;13.33;4.10;;;14.80;31.50;;;;;;5037895;28;46323;-63
2022/07/16 02:13:39;;;;;;;10.07;3.87;;;14.80;31.60;;;;;;5036169;28;46294;-63
2022/07/16 02:16:05;;;;;;;11.03;4.37;;;14.80;32.00;;;;;;5036095;28;46384;-63
2022/07/16 02:18:31;;;;;;;6.83;3.30;;;14.70;31.90;;;;;;5036292;28;46606;-63
2022/07/16 02:20:57;;;;;;;5.93;3.70;;;14.60;32.20;;;;;;5037111;28;46459;-63
2022/07/16 02:23:23;;;;;;;8.30;4.20;;;14.60;32.30;;;;;;5038768;28;46388;-63
2022/07/16 02:25:49;;;;;;;6.07;3.87;;;14.50;32.40;;;;;;5037565;28;46425;-64
2022/07/16 02:28:14;;;;;;;6.23;3.80;;;14.60;32.40;;;;;;5038729;28;46517;-63
2022/07/16 02:30:46;;;;;;;6.43;3.43;;;14.60;32.30;;;;;;5039827;28;46425;-62
2022/07/16 02:33:14;;;;;;;11.10;4.23;;;14.60;32.60;;;;;;5039220;28;46439;-62
2022/07/16 02:35:41;;;;;;;16.63;4.20;;;14.50;32.60;;;;;;5040522;28;46416;-62
2022/07/16 02:38:07;;;;;;;8.07;3.83;;;14.50;32.90;;;;;;5040053;28;46416;-63
2022/07/16 02:40:34;;;;;;;7.73;3.77;;;14.40;34.30;;;;;;5041619;28;46566;-63
2022/07/16 02:43:00;;;;;;;7.60;4.27;;;14.40;33.10;;;;;;5039710;28;46466;-62
2022/07/16 02:45:26;;;;;;;7.73;3.93;;;14.30;33.30;;;;;;5040292;28;46677;-63
2022/07/16 02:47:52;;;;;;;5.77;3.53;;;14.30;33.30;;;;;;5041034;28;46350;-63
2022/07/16 02:50:18;;;;;;;6.20;3.83;;;14.20;33.40;;;;;;5037227;28;47105;-63
2022/07/16 02:52:44;;;;;;;8.30;3.80;;;14.20;33.60;;;;;;5040113;28;46291;-63
2022/07/16 02:55:09;;;;;;;7.73;4.30;;;14.10;33.60;;;;;;5040876;28;46448;-62
2022/07/16 02:57:35;;;;;;;8.77;4.10;;;14.00;33.80;;;;;;5040707;28;46389;-64
2022/07/16 03:00:02;;;;;;;7.13;4.23;;;14.00;34.20;;;;;;5039342;28;46541;-63
2022/07/16 03:02:27;;;;;;;9.60;5.07;;;13.90;34.30;;;;;;5037066;28;46404;-63
2022/07/16 03:04:53;;;;;;;8.03;5.27;;;13.90;34.40;;;;;;5040170;28;46390;-64
2022/07/16 03:07:18;;;;;;;7.63;4.30;;;13.80;34.50;;;;;;5039437;28;46664;-63
2022/07/16 03:09:44;;;;;;;9.90;3.63;;;13.80;34.50;;;;;;5038308;28;47305;-63
2022/07/16 03:12:10;;;;;;;8.07;4.10;;;13.80;34.60;;;;;;5039720;28;46471;-63
2022/07/16 03:14:35;;;;;;;8.13;4.00;;;13.70;34.70;;;;;;5038360;28;45970;-62
2022/07/16 03:17:02;;;;;;;9.37;4.20;;;13.70;35.00;;;;;;5039815;28;46678;-63
2022/07/16 03:19:28;;;;;;;11.03;4.50;;;13.70;35.30;;;;;;5038182;28;48966;-62
2022/07/16 03:21:53;;;;;;;11.10;4.93;;;13.60;35.30;;;;;;5038407;28;46597;-62
2022/07/16 03:24:19;;;;;;;6.80;4.57;;;13.60;35.40;;;;;;5040907;28;46451;-63
2022/07/16 03:26:44;;;;;;;8.40;3.93;;;13.60;35.50;;;;;;5039571;28;46590;-63
2022/07/16 03:29:10;;;;;;;8.90;4.50;;;13.60;35.60;;;;;;5039165;28;47170;-64
2022/07/16 03:31:35;;;;;;;6.50;4.37;;;13.60;35.70;;;;;;5046708;28;46556;-64
2022/07/16 03:34:01;;;;;;;8.30;4.20;;;13.60;35.80;;;;;;5039315;28;46408;-61
2022/07/16 03:36:27;;;;;;;7.10;4.10;;;13.60;35.90;;;;;;5039090;28;46310;-63
2022/07/16 03:39:04;;;;;;;6.37;3.90;;;13.70;35.80;;;;;;5040488;28;46342;-63
2022/07/16 03:41:38;;;;;;;6.03;3.80;;;13.70;35.60;;;;;;5040546;28;46331;-63
2022/07/16 03:44:05;;;;;;;7.10;4.50;;;13.70;35.50;;;;;;5038977;28;46412;-63
2022/07/16 03:46:31;;;;;;;5.63;3.80;;;13.80;35.50;;;;;;5039452;28;46568;-63
2022/07/16 03:48:58;;;;;;;8.33;3.90;;;13.80;35.50;;;;;;5038755;28;46582;-63
2022/07/16 03:51:24;;;;;;;7.70;4.00;;;13.80;35.50;;;;;;5039519;28;46382;-63
2022/07/16 03:53:50;;;;;;;8.07;3.77;;;13.80;35.50;;;;;;5041095;28;47088;-63
2022/07/16 03:56:16;;;;;;;7.77;3.60;;;13.90;35.30;;;;;;5038704;28;46632;-63
2022/07/16 03:58:42;;;;;;;5.50;3.70;;;13.90;35.30;;;;;;5039695;28;45931;-64
2022/07/16 04:01:08;;;;;;;10.10;3.50;;;13.90;35.20;;;;;;5039494;28;46378;-63
2022/07/16 04:03:34;;;;;;;6.00;4.07;;;13.80;35.20;;;;;;5040790;28;46339;-64
2022/07/16 04:06:00;;;;;;;6.30;3.70;;;13.90;35.30;;;;;;5040542;28;46466;-63
2022/07/16 04:08:26;;;;;;;8.73;4.83;;;14.00;35.10;;;;;;5038935;28;46390;-63
2022/07/16 04:10:51;;;;;;;13.97;3.90;;;14.10;35.00;;;;;;5040075;28;46372;-63
2022/07/16 04:13:17;;;;;;;9.53;4.40;;;14.30;34.70;;;;;;5040787;28;46482;-63
2022/07/16 04:15:43;;;;;;;11.27;4.57;;;14.40;34.60;;;;;;5040438;28;46382;-63
2022/07/16 04:18:09;;;;;;;7.67;4.70;;;14.60;34.50;;;;;;5039935;28;46394;-63
2022/07/16 04:20:35;;;;;;;9.47;4.60;;;14.70;34.40;;;;;;5038640;28;46409;-63
2022/07/16 04:23:01;;;;;;;8.10;4.43;;;14.80;34.40;;;;;;5040883;28;46416;-63
2022/07/16 04:25:27;;;;;;;8.93;4.97;;;14.90;34.50;;;;;;5040351;28;45974;-64
2022/07/16 04:27:52;;;;;;;10.10;4.53;;;15.00;34.40;;;;;;5039843;28;46358;-63
2022/07/16 04:30:18;;;;;;;9.13;4.47;;;15.20;34.20;;;;;;5038944;28;46438;-63
2022/07/16 04:32:44;;;;;;;6.43;4.07;;;15.40;34.10;;;;;;5040284;28;46403;-63
2022/07/16 04:35:12;;;;;;;8.60;4.23;;;15.60;33.90;;;;;;5037254;28;46339;-64
2022/07/16 04:37:38;;;;;;;10.10;4.50;;;15.70;33.60;;;;;;5037531;28;47247;-63
2022/07/16 04:40:05;;;;;;;8.80;4.33;;;15.90;33.60;;;;;;5038133;28;46401;-63
2022/07/16 04:42:31;;;;;;;9.23;4.73;;;16.00;33.50;;;;;;5037080;28;46504;-62
2022/07/16 04:44:57;;;;;;;8.87;4.30;;;16.10;33.50;;;;;;5037248;28;46642;-62
2022/07/16 04:47:22;;;;;;;6.60;4.43;;;16.20;33.40;;;;;;5036862;28;47049;-62
2022/07/16 04:49:48;;;;;;;9.77;4.20;;;16.30;33.10;;;;;;5038099;28;46331;-60
2022/07/16 04:52:14;;;;;;;12.87;3.97;;;16.60;32.60;;;;;;5039168;28;46470;-62
2022/07/16 04:54:39;;;;;;;8.90;3.87;;;17.30;31.60;;;;;;5036010;28;45998;-63
2022/07/16 04:57:05;;;;;;;7.90;3.67;;;18.50;30.70;;;;;;5039574;28;46379;-62
2022/07/16 04:59:31;;;;;;;7.93;3.40;;;19.70;29.60;;;;;;5037807;28;46398;-63
2022/07/16 05:04:40;;;;;;;7.13;4.07;;;19.90;27.50;;;;;;5039090;28;46382;-62
2022/07/16 05:07:06;;;;;;;8.03;4.30;;;19.70;27.80;;;;;;5037633;28;46424;-63
2022/07/16 05:09:31;;;;;;;6.20;3.27;;;19.80;27.90;;;;;;5036741;28;46544;-63
2022/07/16 05:11:57;;;;;;;6.70;2.63;;;21.00;27.20;;;;;;5036790;28;46508;-63
2022/07/16 05:14:22;;;;;;;9.70;3.27;;;22.40;24.10;;;;;;5037611;28;46444;-62
2022/07/16 05:16:48;;;;;;;7.40;3.50;;;23.70;22.00;;;;;;5038112;28;47320;-62
2022/07/16 05:19:14;;;;;;;6.20;3.50;;;24.70;20.40;;;;;;5033926;28;46439;-62
2022/07/16 05:21:39;;;;;;;18.77;3.80;;;25.50;19.00;;;;;;5037860;28;46349;-63
2022/07/16 05:24:05;;;;;;;4.70;2.93;;;26.50;17.40;;;;;;5038225;28;46592;-62
2022/07/16 05:26:31;;;;;;;4.80;3.03;;;27.20;15.90;;;;;;5037976;28;48582;-63
2022/07/16 05:28:56;;;;;;;6.50;3.50;;;27.70;14.20;;;;;;5037306;28;46433;-63
2022/07/16 05:31:22;;;;;;;8.37;3.30;;;28.10;13.00;;;;;;5038284;28;46465;-63
2022/07/16 05:33:48;;;;;;;6.10;2.77;;;28.60;11.90;;;;;;5037650;28;46423;-64
2022/07/16 05:36:13;;;;;;;10.73;2.83;;;29.10;11.00;;;;;;5037404;28;46376;-61
2022/07/16 05:38:39;;;;;;;6.87;3.50;;;29.40;9.80;;;;;;5035157;28;46628;-62
2022/07/16 05:41:04;;;;;;;7.83;2.97;;;29.90;8.70;;;;;;5037700;28;46420;-62
2022/07/16 05:43:30;;;;;;;7.47;2.97;;;30.40;7.70;;;;;;5034249;28;46311;-63
2022/07/16 05:45:56;;;;;;;6.37;3.07;;;30.70;6.50;;;;;;5037001;28;46444;-63
2022/07/16 05:48:22;;;;;;;6.03;3.40;;;31.00;6.30;;;;;;5036104;28;45854;-63
2022/07/16 05:50:47;;;;;;;7.53;3.37;;;31.40;5.10;;;;;;5037009;28;46413;-65
2022/07/16 05:53:13;;;;;;;13.37;3.03;;;31.70;4.30;;;;;;5044922;28;46647;-63
2022/07/16 05:55:39;;;;;;;6.77;3.20;;;32.00;3.60;;;;;;5037187;28;46325;-64
2022/07/16 05:58:05;;;;;;;6.43;3.20;;;32.20;2.90;;;;;;5037203;28;46468;-64
2022/07/16 06:00:31;;;;;;;9.50;3.63;;;32.20;2.60;;;;;;5034901;28;46366;-64
2022/07/16 06:02:56;;;;;;;8.30;2.90;;;31.90;2.80;;;;;;5039080;28;46319;-64
2022/07/16 06:05:23;;;;;;;9.50;3.40;;;31.60;3.10;;;;;;5040040;28;47273;-63
2022/07/16 06:07:49;;;;;;;8.10;3.07;;;31.10;3.80;;;;;;5039975;28;45910;-63
2022/07/16 06:10:15;;;;;;;5.37;3.13;;;29.60;5.90;;;;;;5042404;28;46553;-63
2022/07/16 06:12:41;;;;;;;9.13;3.00;;;28.40;8.10;;;;;;5040000;28;46477;-63
2022/07/16 06:15:07;;;;;;;6.00;3.20;;;27.50;9.40;;;;;;5040029;28;46783;-63
2022/07/16 06:17:35;;;;;;;7.00;3.47;;;26.80;10.70;;;;;;5040694;28;46536;-63
2022/07/16 06:20:00;;;;;;;5.23;3.13;;;26.20;11.50;;;;;;5041506;28;46687;-63
2022/07/16 06:22:26;;;;;;;7.50;2.50;;;25.80;11.80;;;;;;5042136;28;46485;-63
2022/07/16 06:24:52;;;;;;;4.00;2.43;;;25.40;11.90;;;;;;5039202;28;47219;-63
2022/07/16 06:27:17;;;;;;;8.00;3.03;;;25.30;11.80;;;;;;5041698;28;46405;-63
2022/07/16 06:29:43;;;;;;;4.80;2.60;;;25.10;12.10;;;;;;5040528;28;46371;-63
2022/07/16 06:32:08;;;;;;;5.67;3.17;;;25.00;12.10;;;;;;5041993;28;46423;-62
2022/07/16 06:34:34;;;;;;;7.07;2.70;;;24.80;12.10;;;;;;5041763;28;46373;-63
2022/07/16 06:37:00;;;;;;;5.90;3.60;;;24.60;11.80;;;;;;5041148;28;45801;-63
2022/07/16 06:39:25;;;;;;;6.07;2.93;;;24.60;11.60;;;;;;5040332;28;46450;-62
2022/07/16 06:41:51;;;;;;;12.33;3.17;;;24.40;11.30;;;;;;5042029;28;45950;-64
2022/07/16 06:44:17;;;;;;;6.80;3.00;;;24.20;11.40;;;;;;5038491;28;47126;-62
2022/07/16 06:46:42;;;;;;;12.60;3.00;;;24.10;11.30;;;;;;5041413;28;46381;-64
2022/07/16 06:49:08;;;;;;;11.03;2.73;;;24.10;11.30;;;;;;5038689;28;46597;-64
2022/07/16 06:51:33;;;;;;;4.63;2.67;;;24.20;11.20;;;;;;5040737;28;46615;-64
2022/07/16 06:53:59;;;;;;;7.10;2.80;;;24.20;10.90;;;;;;5040035;28;46453;-64
2022/07/16 06:56:25;;;;;;;5.43;3.13;;;24.20;10.90;;;;;;5040354;28;46413;-64
2022/07/16 06:58:50;;;;;;;7.10;2.50;;;24.20;10.90;;;;;;5039634;28;46437;-64
2022/07/16 07:01:16;;;;;;;11.20;2.30;;;24.20;10.90;;;;;;5039284;28;45948;-64
2022/07/16 07:03:43;;;;;;;7.20;2.90;;;24.10;10.90;;;;;;5041645;28;47137;-64
2022/07/16 07:06:08;;;;;;;7.00;2.80;;;24.00;10.70;;;;;;5039808;28;46440;-63
2022/07/16 07:08:34;;;;;;;5.03;2.60;;;24.20;10.50;;;;;;5040466;28;46562;-64
2022/07/16 07:11:00;;;;;;;4.33;2.63;;;24.10;10.40;;;;;;5040322;28;46912;-64
2022/07/16 07:13:27;;;;;;;7.53;2.80;;;23.90;10.60;;;;;;5038894;28;46375;-64
2022/07/16 07:15:53;;;;;;;8.20;3.13;;;24.00;10.60;;;;;;5040078;28;46516;-64
2022/07/16 07:18:18;;;;;;;7.70;3.70;;;24.10;10.60;;;;;;5040423;28;46420;-64
2022/07/16 07:20:44;;;;;;;8.10;2.30;;;24.00;10.80;;;;;;5041108;28;46841;-64
2022/07/16 07:23:10;;;;;;;7.60;3.17;;;24.10;10.70;;;;;;5040577;28;46501;-64
2022/07/16 07:25:36;;;;;;;10.33;3.30;;;23.90;10.50;;;;;;5040464;28;45889;-64
2022/07/16 07:28:02;;;;;;;11.13;3.23;;;24.00;10.40;;;;;;5041924;28;46979;-64
2022/07/16 07:30:27;;;;;;;8.33;2.90;;;23.70;10.10;;;;;;5038913;28;46373;-63
2022/07/16 07:32:53;;;;;;;9.13;2.90;;;23.70;10.00;;;;;;5039085;28;46268;-62
2022/07/16 07:35:18;;;;;;;6.73;2.53;;;23.60;9.90;;;;;;5038923;28;45773;-62
2022/07/16 07:37:44;;;;;;;6.30;3.17;;;23.30;9.90;;;;;;5038766;28;46361;-64
2022/07/16 07:40:10;;;;;;;13.43;3.90;;;23.30;10.20;;;;;;5038709;28;46419;-64
2022/07/16 07:42:36;;;;;;;9.10;3.47;;;23.40;10.30;;;;;;5038015;28;46343;-64
2022/07/16 07:45:02;;;;;;;7.23;3.27;;;23.70;9.90;;;;;;5037029;28;46730;-64
2022/07/16 07:47:28;;;;;;;8.87;2.63;;;24.00;9.90;;;;;;5038062;28;45861;-63
2022/07/16 07:49:53;;;;;;;7.47;3.33;;;24.20;9.40;;;;;;5037861;28;46375;-63
2022/07/16 07:52:19;;;;;;;4.40;2.80;;;24.20;9.40;;;;;;5038382;28;47053;-64
2022/07/16 07:54:45;;;;;;;11.17;3.03;;;24.00;8.90;;;;;;5040093;28;46327;-63
2022/07/16 07:57:11;;;;;;;9.07;3.20;;;23.80;9.00;;;;;;5037065;28;46033;-63
2022/07/16 07:59:36;;;;;;;13.00;3.07;;;23.40;9.00;;;;;;5039890;28;46636;-63
2022/07/16 08:02:02;;;;;;;9.73;3.27;;;23.20;9.30;;;;;;5035435;28;47113;-63
2022/07/16 08:04:27;;;;;;;9.33;3.27;;;23.20;9.80;;;;;;5038994;28;46615;-63
2022/07/16 08:06:53;;;;;;;9.23;3.80;;;23.50;9.70;;;;;;5036788;28;46405;-63
2022/07/16 08:09:19;;;;;;;10.10;3.10;;;23.70;9.40;;;;;;5037677;28;46324;-63
2022/07/16 08:11:44;;;;;;;7.17;3.23;;;23.30;9.60;;;;;;5040905;28;46677;-63
2022/07/16 08:14:11;;;;;;;12.40;2.73;;;23.10;10.10;;;;;;5035123;28;46403;-63
2022/07/16 08:16:37;;;;;;;6.83;3.33;;;23.20;10.10;;;;;;5039680;28;46303;-63
2022/07/16 08:19:02;;;;;;;7.10;3.37;;;23.40;10.00;;;;;;5036788;28;46754;-63
2022/07/16 08:21:28;;;;;;;6.10;3.33;;;23.20;10.00;;;;;;5038657;28;46415;-63
2022/07/16 08:26:38;;;;;;;7.33;3.13;;;23.90;9.50;;;;;;5039353;28;46444;-63
2022/07/16 08:29:04;;;;;;;6.67;3.20;;;24.40;9.10;;;;;;5036901;28;46411;-63
2022/07/16 08:31:29;;;;;;;6.80;3.43;;;24.40;9.10;;;;;;5036965;28;46657;-63
2022/07/16 08:33:55;;;;;;;7.40;3.27;;;24.70;8.80;;;;;;5039199;28;46629;-63
2022/07/16 08:36:21;;;;;;;5.90;2.80;;;24.80;8.30;;;;;;5036835;28;46485;-63
2022/07/16 08:38:46;;;;;;;6.13;3.53;;;24.60;8.40;;;;;;5037681;28;46414;-64
2022/07/16 08:41:14;;;;;;;11.10;3.50;;;24.50;8.10;;;;;;5037714;28;46459;-63
2022/07/16 08:43:40;;;;;;;7.00;3.10;;;24.40;8.20;;;;;;5039738;28;46461;-64
2022/07/16 08:46:07;;;;;;;12.40;2.90;;;24.30;8.00;;;;;;5041212;28;46393;-63
2022/07/16 08:48:32;;;;;;;7.20;2.77;;;24.30;8.00;;;;;;5038257;28;46531;-63
2022/07/16 08:51:00;;;;;;;10.53;3.30;;;24.60;8.20;;;;;;5040236;28;46496;-63
2022/07/16 08:53:29;;;;;;;8.13;2.93;;;24.80;7.90;;;;;;5037747;28;46426;-63
2022/07/16 08:55:55;;;;;;;10.17;3.27;;;25.00;7.30;;;;;;5039117;28;46325;-63
2022/07/16 08:58:21;;;;;;;10.27;3.60;;;25.20;7.90;;;;;;5038224;28;46843;-63
2022/07/16 09:00:46;;;;;;;6.23;3.10;;;24.90;7.00;;;;;;5037793;28;46382;-63
2022/07/16 09:03:13;;;;;;;5.87;2.83;;;24.50;6.90;;;;;;5038961;28;46489;-63
2022/07/16 09:05:43;;;;;;;7.80;3.50;;;24.40;7.10;;;;;;5037945;28;45848;-63
2022/07/16 09:08:08;;;;;;;27.20;6.73;;;24.10;7.40;;;;;;5039224;28;46670;-63
2022/07/16 09:10:38;;;;;;;8.30;3.00;;;24.10;6.90;;;;;;5038008;28;46428;-63
2022/07/16 09:13:05;;;;;;;8.97;3.43;;;24.30;6.50;;;;;;5039388;28;46474;-63
2022/07/16 09:15:37;;;;;;;14.00;4.17;;;24.40;7.00;;;;;;5039253;28;46369;-63
2022/07/16 09:18:18;;;;;;;4.83;3.33;;;24.90;6.90;;;;;;5038785;28;45907;-63
2022/07/16 09:20:58;;;;;;;6.20;3.00;;;24.70;6.50;;;;;;5037575;28;46483;-63
2022/07/16 09:23:31;;;;;;;8.67;3.27;;;24.30;6.10;;;;;;5039308;28;46431;-63
2022/07/16 09:25:59;;;;;;;5.67;3.53;;;24.20;6.40;;;;;;5037028;28;46475;-63
2022/07/16 09:28:36;;;;;;;6.60;2.77;;;24.30;6.50;;;;;;5036900;28;46570;-63
2022/07/16 09:31:02;;;;;;;6.37;3.40;;;24.20;6.30;;;;;;5036362;28;46359;-63
2022/07/16 09:33:28;;;;;;;10.60;3.23;;;24.40;6.20;;;;;;5038467;28;46425;-63
2022/07/16 09:36:06;;;;;;;7.00;3.10;;;24.40;6.50;;;;;;5037188;28;46426;-64
2022/07/16 09:38:49;;;;;;;9.13;3.07;;;24.70;6.40;;;;;;5038890;28;46386;-63
2022/07/16 09:41:14;;;;;;;6.20;3.03;;;25.00;5.70;;;;;;5040424;28;46414;-63
2022/07/16 09:43:42;;;;;;;4.30;2.83;;;25.10;5.50;;;;;;5042082;28;46374;-63
2022/07/16 09:46:08;;;;;;;6.57;3.13;;;25.50;5.40;;;;;;5042036;28;46470;-63
2022/07/16 09:48:37;;;;;;;5.57;2.53;;;25.70;4.90;;;;;;5040461;28;46454;-63
2022/07/16 09:51:14;;;;;;;8.33;2.70;;;25.80;4.80;;;;;;5041150;28;46516;-64
2022/07/16 09:53:43;;;;;;;4.83;2.53;;;25.50;4.50;;;;;;5039565;28;45866;-63
2022/07/16 09:56:12;;;;;;;9.57;3.60;;;25.80;4.90;;;;;;5040684;28;46456;-63
2022/07/16 09:58:37;;;;;;;5.90;2.67;;;25.70;4.40;;;;;;5041911;28;46453;-63
2022/07/16 10:01:05;;;;;;;6.10;3.80;;;25.70;4.00;;;;;;5040264;28;46381;-65
2022/07/16 10:03:31;;;;;;;5.20;3.03;;;25.50;4.40;;;;;;5040066;28;46377;-63
2022/07/16 10:05:57;;;;;;;4.73;2.90;;;25.70;4.70;;;;;;5039960;28;46207;-63
2022/07/16 10:08:23;;;;;;;4.70;2.80;;;25.70;4.10;;;;;;5039442;28;46016;-63
2022/07/16 10:10:50;;;;;;;8.77;3.20;;;25.60;4.30;;;;;;5040372;28;47132;-63
2022/07/16 10:13:18;;;;;;;7.70;2.70;;;25.70;5.20;;;;;;5040638;28;46701;-63
2022/07/16 10:15:46;;;;;;;4.57;2.60;;;25.90;4.20;;;;;;5041543;28;46446;-64
2022/07/16 10:18:36;;;;;;;6.13;3.20;;;26.00;4.00;;;;;;5040037;28;46271;-64
2022/07/16 10:21:08;;;;;;;7.13;3.10;;;26.10;4.00;;;;;;5039529;28;46483;-64
2022/07/16 10:23:35;;;;;;;6.73;2.60;;;26.10;4.00;;;;;;5038304;28;46439;-64
2022/07/16 10:26:06;;;;;;;6.87;3.20;;;26.10;4.00;;;;;;5040171;28;46457;-63
2022/07/16 10:28:37;;;;;;;9.23;2.67;;;25.40;3.70;;;;;;5039990;28;46318;-64
2022/07/16 10:31:32;;;;;;;6.00;2.97;;;25.20;3.60;;;;;;5039046;28;46443;-64
2022/07/16 10:34:13;;;;;;;5.93;2.67;;;25.50;4.60;;;;;;5041404;28;45811;-64
2022/07/16 10:36:54;;;;;;;4.07;2.80;;;25.30;3.60;;;;;;5040664;28;45933;-63
2022/07/16 10:39:22;;;;;;;7.73;3.10;;;25.40;3.70;;;;;;5039418;28;46418;-63
2022/07/16 10:42:11;;;;;;;7.27;3.27;;;25.40;3.70;;;;;;5039857;28;47766;-63
2022/07/16 10:44:47;;;;;;;5.70;3.47;;;25.20;4.20;;;;;;5040100;28;46451;-63
2022/07/16 10:47:15;;;;;;;5.20;2.93;;;25.20;4.10;;;;;;5038271;28;46478;-63
2022/07/16 10:49:41;;;;;;;7.57;3.40;;;25.40;3.70;;;;;;5036140;28;46476;-63
2022/07/16 10:52:08;;;;;;;10.60;2.60;;;25.50;3.70;;;;;;5038663;28;46468;-63
2022/07/16 10:54:36;;;;;;;7.50;3.40;;;25.60;3.80;;;;;;5037028;28;46861;-63
2022/07/16 10:57:05;;;;;;;5.67;3.20;;;25.90;3.90;;;;;;5037775;28;46444;-63
2022/07/16 10:59:43;;;;;;;4.47;3.00;;;25.50;3.70;;;;;;5037998;28;46536;-63
2022/07/16 11:02:10;;;;;;;4.80;2.87;;;25.70;3.80;;;;;;5036498;28;46366;-63
2022/07/16 11:04:46;;;;;;;4.03;2.93;;;26.00;4.00;;;;;;5039969;28;46390;-63
2022/07/16 11:07:15;;;;;;;10.10;2.70;;;26.30;3.90;;;;;;5037511;28;46454;-63
2022/07/16 11:09:44;;;;;;;8.30;3.20;;;26.20;4.40;;;;;;5038972;28;46462;-62
2022/07/16 11:12:14;;;;;;;8.50;3.37;;;26.10;3.90;;;;;;5039746;28;46973;-63
2022/07/16 11:14:45;;;;;;;4.63;2.90;;;25.80;3.20;;;;;;5038576;28;46311;-63
2022/07/16 11:17:16;;;;;;;5.00;2.60;;;25.90;3.50;;;;;;5034920;28;46785;-63
2022/07/16 11:19:48;;;;;;;5.17;3.00;;;26.10;3.00;;;;;;5036527;28;46552;-62
2022/07/16 11:22:20;;;;;;;9.87;3.40;;;26.10;2.80;;;;;;5038784;28;46477;-62
2022/07/16 11:24:52;;;;;;;6.17;2.47;;;26.10;2.30;;;;;;5039851;28;46386;-63
2022/07/16 11:27:18;;;;;;;5.30;2.70;;;26.10;2.60;;;;;;5037770;28;46605;-62
2022/07/16 11:29:44;;;;;;;10.53;2.90;;;25.80;2.40;;;;;;5037490;28;46480;-62
2022/07/16 11:32:16;;;;;;;5.27;2.80;;;25.70;3.60;;;;;;5038399;28;46429;-61
2022/07/16 11:34:42;;;;;;;10.20;2.87;;;25.90;3.00;;;;;;5039052;28;46444;-62
2022/07/16 11:37:10;;;;;;;5.30;2.90;;;26.20;2.70;;;;;;5037688;28;46573;-60
2022/07/16 11:39:37;;;;;;;9.60;2.70;;;26.40;1.90;;;;;;5038634;28;46596;-62
2022/07/16 11:42:03;;;;;;;6.20;2.70;;;26.30;2.30;;;;;;5019444;28;46996;-62
2022/07/16 11:44:32;;;;;;;8.17;2.20;;;26.40;1.90;;;;;;5039629;28;46800;-63
2022/07/16 11:46:59;;;;;;;7.30;2.50;;;26.40;1.60;;;;;;5052901;28;46503;-63
2022/07/16 11:49:37;;;;;;;5.10;2.70;;;26.20;1.20;;;;;;5038340;28;46506;-63
2022/07/16 11:52:20;;;;;;;10.53;3.00;;;26.40;1.50;;;;;;5039577;28;46646;-63
2022/07/16 11:54:51;;;;;;;6.20;2.70;;;26.30;1.40;;;;;;5038469;28;46749;-63
2022/07/16 11:57:19;;;;;;;7.37;2.90;;;26.30;1.50;;;;;;5036688;28;46436;-61
2022/07/16 11:59:55;;;;;;;4.80;2.60;;;26.30;1.60;;;;;;5035247;28;46472;-61
2022/07/16 12:02:25;;;;;;;7.53;2.80;;;26.40;1.60;;;;;;5037514;28;46473;-62
2022/07/16 12:05:00;;;;;;;6.00;2.47;;;26.40;1.50;;;;;;5037753;28;46411;-62
2022/07/16 12:07:29;;;;;;;7.07;2.40;;;26.40;1.40;;;;;;5036548;28;46331;-63
2022/07/16 12:10:06;;;;;;;8.20;2.83;;;26.30;1.30;;;;;;5038444;28;46429;-63
2022/07/16 12:12:37;;;;;;;6.00;2.77;;;26.40;1.30;;;;;;5037984;28;46432;-64
2022/07/16 12:15:12;;;;;;;6.83;2.30;;;26.30;1.40;;;;;;5039442;28;46450;-64
2022/07/16 12:17:47;;;;;;;6.33;2.83;;;26.50;1.40;;;;;;5035872;28;46429;-67
2022/07/16 12:20:17;;;;;;;4.43;2.50;;;26.60;1.60;;;;;;5039755;28;46533;-66
2022/07/16 12:22:46;;;;;;;8.53;2.77;;;26.60;1.50;;;;;;5039139;28;47741;-63
2022/07/16 12:25:39;;;;;;;6.23;2.53;;;26.60;1.30;;;;;;5030451;28;46439;-63
2022/07/16 12:28:24;;;;;;;4.57;2.70;;;26.80;1.40;;;;;;5023873;28;46623;-63
2022/07/16 12:30:56;;;;;;;5.53;2.47;;;26.70;1.40;;;;;;5035435;28;46466;-63
2022/07/16 12:33:25;;;;;;;5.43;2.63;;;26.60;1.20;;;;;;5037558;28;46462;-62
2022/07/16 12:36:01;;;;;;;6.30;2.80;;;26.40;1.20;;;;;;5036778;28;46442;-62
2022/07/16 12:38:44;;;;;;;5.80;2.80;;;26.30;1.60;;;;;;5037801;28;46358;-62
2022/07/16 12:41:32;;;;;;;4.90;2.37;;;26.30;1.80;;;;;;5037868;28;46401;-62
2022/07/16 12:44:05;;;;;;;5.67;2.70;;;26.60;1.60;;;;;;5036596;28;47436;-63
2022/07/16 12:46:33;;;;;;;6.50;2.60;;;26.70;1.70;;;;;;5038807;28;45859;-63
2022/07/16 12:49:07;;;;;;;10.03;2.93;;;26.90;1.50;;;;;;5037075;28;46448;-62
2022/07/16 12:51:36;;;;;;;6.77;2.40;;;26.90;2.20;;;;;;5036378;28;46576;-63
2022/07/16 12:54:06;;;;;;;5.40;2.40;;;26.90;1.20;;;;;;5032908;28;48672;-62
2022/07/16 12:59:25;;;;;;;6.00;2.43;;;26.60;1.00;;;;;;5035595;28;45955;-63
2022/07/16 13:01:51;;;;;;;7.23;2.50;;;26.70;1.00;;;;;;5036357;28;46767;-64
2022/07/16 13:04:17;;;;;;;4.77;2.10;;;26.60;1.00;;;;;;5033350;28;46761;-64